createdAt,value
2023-11-15T00:03:33.462Z,98151.98
2023-11-15T00:08:35.944Z,98145.83
2023-11-15T00:13:38.581Z,98146.14
2023-11-15T00:18:40.912Z,98148.84
2023-11-15T00:23:45.960Z,98150.95
2023-11-15T00:28:51.073Z,98150.44
2023-11-15T00:33:54.389Z,98145.86
2023-11-15T00:38:59.641Z,98145.20
2023-11-15T00:44:10.943Z,98144.91
2023-11-15T00:49:13.332Z,98143.72
2023-11-15T00:54:18.307Z,98147.39
2023-11-15T00:59:23.482Z,98144.29
2023-11-15T01:04:26.629Z,98141.89
2023-11-15T01:09:34.768Z,98146.33
2023-11-15T01:14:37.392Z,98147.94
2023-11-15T01:19:40.580Z,98148.91
2023-11-15T01:24:53.221Z,98152.10
2023-11-15T01:29:55.603Z,98158.64
2023-11-15T01:34:57.889Z,98164.14
2023-11-15T01:40:02.737Z,98168.29
2023-11-15T01:45:07.124Z,98176.23
2023-11-15T01:50:11.299Z,98168.77
2023-11-15T01:55:19.996Z,98176.45
2023-11-15T02:00:23.562Z,98168.56
2023-11-15T02:05:26.821Z,98165.68
2023-11-15T02:10:29.264Z,98171.52
2023-11-15T02:15:32.769Z,98174.45
2023-11-15T02:20:38.271Z,98173.45
2023-11-15T02:25:43.286Z,98173.65
2023-11-15T02:30:52.959Z,98173.19
2023-11-15T02:36:00.869Z,98171.61
2023-11-15T02:41:06.731Z,98178.75
2023-11-15T02:46:23.484Z,98182.44
2023-11-15T02:51:26.365Z,98182.79
2023-11-15T02:56:28.667Z,98181.34
2023-11-15T03:01:31.379Z,98183.39
2023-11-15T03:06:36.917Z,98191.68
2023-11-15T03:11:39.554Z,98195.52
2023-11-15T03:16:47.491Z,98201.70
2023-11-15T03:21:50.027Z,98201.36
2023-11-15T03:26:55.848Z,98205.80
2023-11-15T03:31:58.305Z,98206.80
2023-11-15T03:37:03.034Z,98210.70
2023-11-15T03:42:06.275Z,98209.16
2023-11-15T03:47:09.447Z,98213.14
2023-11-15T03:52:11.767Z,98218.48
2023-11-15T03:57:14.237Z,98229.77
2023-11-15T04:02:16.750Z,98235.01
2023-11-15T04:07:19.142Z,98235.36
2023-11-15T04:12:21.524Z,98245.84
2023-11-15T04:17:24.907Z,98244.39
2023-11-15T04:22:27.464Z,98250.48
2023-11-15T04:27:31.234Z,98251.08
2023-11-15T04:32:34.279Z,98253.96
2023-11-15T04:37:36.958Z,98257.91
2023-11-15T04:42:39.634Z,98269.38
2023-11-15T04:47:42.014Z,98276.74
2023-11-15T04:52:46.869Z,98289.13
2023-11-15T04:57:49.375Z,98290.48
2023-11-15T05:02:51.807Z,98286.89
2023-11-15T05:07:54.656Z,98289.39
2023-11-15T05:12:57.010Z,98294.80
2023-11-15T05:17:59.984Z,98299.02
2023-11-15T05:23:02.441Z,98308.75
2023-11-15T05:28:05.854Z,98313.48
2023-11-15T05:33:09.239Z,98311.50
2023-11-15T05:38:11.453Z,98316.49
2023-11-15T05:43:13.952Z,98319.44
2023-11-15T05:48:16.509Z,98323.25
2023-11-15T05:53:19.036Z,98336.33
2023-11-15T05:58:21.320Z,98349.75
2023-11-15T06:03:25.060Z,98363.55
2023-11-15T06:08:27.638Z,98378.95
2023-11-15T06:13:29.928Z,98390.36
2023-11-15T06:18:32.820Z,98396.05
2023-11-15T06:23:35.556Z,98401.16
2023-11-15T06:28:44.300Z,98415.34
2023-11-15T06:33:50.038Z,98433.20
2023-11-15T06:39:00.650Z,98437.88
2023-11-15T06:44:05.780Z,98447.27
2023-11-15T06:49:26.409Z,98456.44
2023-11-15T06:54:40.981Z,98465.71
2023-11-15T06:59:57.262Z,98481.63
2023-11-15T07:05:00.260Z,98494.45
2023-11-15T07:10:06.832Z,98510.54
2023-11-15T07:15:13.940Z,98519.77
2023-11-15T07:20:21.271Z,98532.51
2023-11-15T07:25:23.818Z,98539.75
2023-11-15T07:30:27.841Z,98550.46
2023-11-15T07:35:37.733Z,98558.04
2023-11-15T07:40:42.408Z,98571.48
2023-11-15T07:45:53.786Z,98591.27
2023-11-15T07:50:57.098Z,98602.03
2023-11-15T07:55:59.371Z,98603.11
2023-11-15T08:01:01.762Z,98611.48
2023-11-15T08:06:04.634Z,98622.05
2023-11-15T08:11:10.960Z,98630.13
2023-11-15T08:16:24.406Z,98634.26
2023-11-15T08:21:27.105Z,98652.21
2023-11-15T08:26:41.641Z,98662.08
2023-11-15T08:32:07.109Z,98678.54
2023-11-15T08:37:48.762Z,98690.85
2023-11-15T08:43:13.953Z,98702.66
2023-11-15T08:48:26.678Z,98711.10
2023-11-15T08:53:41.795Z,98712.48
2023-11-15T08:58:59.845Z,98723.17
2023-11-15T09:04:04.995Z,98733.88
2023-11-15T09:09:10.011Z,98740.97
2023-11-15T09:14:16.155Z,98749.25
2023-11-15T09:19:31.338Z,98757.39
2023-11-15T09:24:41.616Z,98757.99
2023-11-15T09:29:57.156Z,98768.66
2023-11-15T09:34:59.812Z,98774.55
2023-11-15T09:40:07.226Z,98781.41
2023-11-15T09:45:23.887Z,98796.09
2023-11-15T09:50:34.072Z,98803.98
2023-11-15T09:55:44.398Z,98813.28
2023-11-15T10:00:49.757Z,98822.30
2023-11-15T10:06:04.502Z,98832.08
2023-11-15T10:11:09.700Z,98839.30
2023-11-15T10:16:35.131Z,98849.60
2023-11-15T10:21:58.090Z,98853.89
2023-11-15T10:27:20.244Z,98858.88
2023-11-15T10:32:23.968Z,98865.02
2023-11-15T10:37:35.375Z,98872.59
2023-11-15T10:42:39.407Z,98885.34
2023-11-15T10:47:50.172Z,98887.68
2023-11-15T10:52:54.468Z,98895.84
2023-11-15T10:58:04.340Z,98897.89
2023-11-15T11:03:09.231Z,98908.07
2023-11-15T11:08:28.731Z,98918.40
2023-11-15T11:13:31.936Z,98925.48
2023-11-15T11:18:35.331Z,98928.61
2023-11-15T11:23:39.083Z,98941.34
2023-11-15T11:29:20.476Z,98954.55
2023-11-15T11:34:25.635Z,98980.27
2023-11-15T11:39:48.106Z,98985.06
2023-11-15T11:44:57.358Z,98992.91
2023-11-15T11:50:10.384Z,99003.84
2023-11-15T11:55:14.689Z,99016.92
2023-11-15T12:00:22.500Z,99030.31
2023-11-15T12:05:26.683Z,99035.64
2023-11-15T12:10:29.586Z,99047.48
2023-11-15T12:15:39.543Z,99051.08
2023-11-15T12:20:42.300Z,99057.42
2023-11-15T12:25:49.936Z,99067.23
2023-11-15T12:31:10.057Z,99076.05
2023-11-15T12:36:53.356Z,99088.36
2023-11-15T12:42:01.677Z,99098.49
2023-11-15T12:47:05.194Z,99106.38
2023-11-15T12:52:08.273Z,99115.08
2023-11-15T12:57:14.881Z,99122.38
2023-11-15T13:02:31.578Z,99135.93
2023-11-15T13:07:34.107Z,99132.81
2023-11-15T13:12:39.717Z,99151.16
2023-11-15T13:17:42.529Z,99164.70
2023-11-15T13:22:45.225Z,99171.65
2023-11-15T13:27:48.288Z,99186.31
2023-11-15T13:32:50.780Z,99195.03
2023-11-15T13:38:00.910Z,99198.94
2023-11-15T13:43:05.971Z,99206.23
2023-11-15T13:48:09.347Z,99213.21
2023-11-15T13:53:14.749Z,99228.36
2023-11-15T13:58:16.867Z,99236.29
2023-11-15T14:03:27.111Z,99247.64
2023-11-15T14:08:46.950Z,99254.63
2023-11-15T14:13:57.912Z,99262.89
2023-11-15T14:19:00.360Z,99275.95
2023-11-15T14:24:02.826Z,99275.70
2023-11-15T14:29:08.573Z,99286.27
2023-11-15T14:34:13.218Z,99293.90
2023-11-15T14:39:15.846Z,99288.82
2023-11-15T14:44:18.116Z,99299.11
2023-11-15T14:49:20.394Z,99308.99
2023-11-15T14:54:24.573Z,99326.41
2023-11-15T14:59:27.065Z,99340.52
2023-11-15T15:04:29.830Z,99346.87
2023-11-15T15:09:55.197Z,99359.92
2023-11-15T15:15:40.851Z,99370.24
2023-11-15T15:20:43.334Z,99382.52
2023-11-15T15:25:45.948Z,99399.13
2023-11-15T15:30:53.657Z,99404.48
2023-11-15T15:36:03.494Z,99414.08
2023-11-15T15:41:08.801Z,99424.58
2023-11-15T15:46:14.272Z,99436.09
2023-11-15T15:51:57.211Z,99446.74
2023-11-15T15:57:10.137Z,99450.23
2023-11-15T16:02:38.492Z,99462.31
2023-11-15T16:08:41.556Z,99476.61
2023-11-15T16:14:34.691Z,99491.92
2023-11-15T16:19:50.961Z,99500.39
2023-11-15T16:25:28.301Z,99507.20
2023-11-15T16:30:43.072Z,99512.95
2023-11-15T16:35:52.019Z,99524.29
2023-11-15T16:41:23.711Z,99527.16
2023-11-15T16:46:31.764Z,99538.62
2023-11-15T16:51:34.475Z,99545.26
2023-11-15T16:56:39.940Z,99554.25
2023-11-15T17:01:45.240Z,99564.56
2023-11-15T17:07:11.663Z,99564.52
2023-11-15T17:12:34.095Z,99576.98
2023-11-15T17:17:48.139Z,99588.45
2023-11-15T17:22:56.430Z,99597.02
2023-11-15T17:27:59.890Z,99608.71
2023-11-15T17:33:45.054Z,99620.96
2023-11-15T17:38:47.372Z,99630.36
2023-11-15T17:43:51.951Z,99638.87
2023-11-15T17:48:56.023Z,99642.97
2023-11-15T17:54:24.123Z,99648.96
2023-11-15T17:59:31.561Z,99650.99
2023-11-15T18:05:01.652Z,99653.36
2023-11-15T18:10:26.743Z,99666.54
2023-11-15T18:15:29.364Z,99675.70
2023-11-15T18:20:33.108Z,99685.65
2023-11-15T18:25:35.537Z,99685.52
2023-11-15T18:30:40.541Z,99688.60
2023-11-15T18:35:54.958Z,99689.33
2023-11-15T18:41:05.016Z,99696.38
2023-11-15T18:46:41.815Z,99703.08
2023-11-15T18:52:10.780Z,99705.05
2023-11-15T18:57:39.358Z,99700.35
2023-11-15T19:03:06.552Z,99705.92
2023-11-15T19:08:12.492Z,99708.38
2023-11-15T19:13:27.892Z,99726.42
2023-11-15T19:18:33.428Z,99736.45
2023-11-15T19:24:36.362Z,99738.61
2023-11-15T19:29:49.546Z,99739.13
2023-11-15T19:35:17.605Z,99742.96
2023-11-15T19:41:00.344Z,99742.66
2023-11-15T19:46:25.922Z,99751.79
2023-11-15T19:51:55.039Z,99754.63
2023-11-15T19:57:21.027Z,99764.28
2023-11-15T20:02:47.359Z,99768.89
2023-11-15T20:07:50.687Z,99777.40
2023-11-15T20:12:58.548Z,99784.16
2023-11-15T20:18:02.922Z,99790.02
2023-11-15T20:23:22.009Z,99792.80
2023-11-15T20:29:07.261Z,99795.66
2023-11-15T20:34:29.719Z,99804.23
2023-11-15T20:39:35.329Z,99813.95
2023-11-15T20:44:40.789Z,99824.78
2023-11-15T20:49:43.183Z,99826.13
2023-11-15T20:54:45.798Z,99824.45
2023-11-15T20:59:51.351Z,99825.92
2023-11-15T21:04:56.926Z,99829.98
2023-11-15T21:10:03.241Z,99836.23
2023-11-15T21:15:17.459Z,99835.27
2023-11-15T21:21:00.248Z,99835.55
2023-11-15T21:26:36.288Z,99836.12
2023-11-15T21:32:01.917Z,99844.73
2023-11-15T21:38:03.845Z,99847.92
2023-11-15T21:43:46.591Z,99856.36
2023-11-15T21:49:05.519Z,99863.23
2023-11-15T21:54:21.002Z,99871.80
2023-11-15T21:59:26.333Z,99877.98
2023-11-15T22:04:31.626Z,99881.45
2023-11-15T22:09:34.137Z,99881.02
2023-11-15T22:14:37.555Z,99879.02
2023-11-15T22:19:42.984Z,99879.83
2023-11-15T22:24:45.243Z,99896.35
2023-11-15T22:30:28.034Z,99903.45
2023-11-15T22:35:30.909Z,99902.83
2023-11-15T22:40:36.392Z,99903.78
2023-11-15T22:45:38.964Z,99899.54
2023-11-15T22:50:54.230Z,99901.23
2023-11-15T22:56:36.842Z,99899.77
2023-11-15T23:01:49.500Z,99901.38
2023-11-15T23:06:54.861Z,99909.42
2023-11-15T23:11:57.260Z,99916.64
2023-11-15T23:16:59.808Z,99917.34
2023-11-15T23:22:04.501Z,99925.30
2023-11-15T23:27:07.055Z,99928.05
2023-11-15T23:32:15.144Z,99932.17
2023-11-15T23:37:48.737Z,99936.39
2023-11-15T23:43:17.554Z,99934.83
2023-11-15T23:48:27.746Z,99938.13
2023-11-15T23:53:30.232Z,99943.48
2023-11-15T23:58:37.018Z,99944.89
